CheckWX is a tool to help pilots better visualize weather data.  It is not intended as a substitute for an official pre-flight weather briefing.

01:03:10 UTC

EGTK METAR
Oxford (Kidlington) Airport
Kidlington, United Kingdom
Current

6 hours ago

EGTK 161920Z 01004KT 9999 BKN018 BKN024 15/13 Q1023
Observed
Sep-16 @ 19:20 UTC
Wind
  • 010° at 4 KTS
Visibility
10,000+ meters
Flight Rules
MVFR
Cloud Levels
  • Broken at 1,800' AGL
  • Broken at 2,400' AGL
Temperature
15°C / 59°F
Dewpoint
13°C / 55°F
Humidity
88%
Altimeter
30.21" Hg
Pressure
1022.92 hPa
Previous

6 hours ago

EGTK 161850Z 02004KT 9999 BKN024 16/13 Q1023
Observed
Sep-16 @ 18:50 UTC
Wind
  • 020° at 4 KTS
Visibility
10,000+ meters
Flight Rules
MVFR
Cloud Levels
  • Broken at 2,400' AGL
Temperature
16°C / 61°F
Dewpoint
13°C / 55°F
Humidity
83%
Altimeter
30.21" Hg
Pressure
1022.92 hPa
Previous

7 hours ago

EGTK 161820Z 36005KT 9999 BKN026 16/13 Q1022
Observed
Sep-16 @ 18:20 UTC
Wind
  • 360° at 5 KTS
Visibility
10,000+ meters
Flight Rules
MVFR
Cloud Levels
  • Broken at 2,600' AGL
Temperature
16°C / 61°F
Dewpoint
13°C / 55°F
Humidity
83%
Altimeter
30.18" Hg
Pressure
1021.92 hPa